Columbus, Ohio
Traffic Map
Current Weather Conditions
Columbus, Ohio
Overcast
Overcast
76°
Feels Like: 76°
Wind Chill: 76° Ceiling: 12000
Heat Index: 76° Visibility: 10mi
Dew Point: 56° Wind: 5mph
Humidity: 50% Direction: 180° (S)
Pressure: 29.99in Gusts: 0mph
Raw Report DataKCMH 260051Z 18004KT 10SM SCT100 BKN120 OVC160 24/13 A2999 RMK AO2 SLP149 T02440133
Traffic Incident Summary
Active as of:
Severity:
Category:
InformationThere was an issue retrieving the traffic information for this location. Please try a different location or try again shortly.
Advertisements
Track Severe Weather on mobile